createdAt,value
2019-03-25T00:00:35.123Z,0.00
2019-03-25T00:01:35.106Z,0.00
2019-03-25T00:02:35.115Z,0.00
2019-03-25T00:03:35.072Z,0.00
2019-03-25T00:04:35.069Z,0.00
2019-03-25T00:05:35.080Z,0.00
2019-03-25T00:06:35.903Z,0.00
2019-03-25T00:07:35.262Z,0.00
2019-03-25T00:08:35.018Z,0.00
2019-03-25T00:09:35.013Z,0.00
2019-03-25T00:10:35.098Z,0.00
2019-03-25T00:11:35.010Z,0.00
2019-03-25T00:12:35.103Z,0.00
2019-03-25T00:13:35.130Z,0.00
2019-03-25T00:14:34.977Z,0.00
2019-03-25T00:15:34.946Z,0.00
2019-03-25T00:16:34.935Z,0.00
2019-03-25T00:17:35.181Z,0.00
2019-03-25T00:18:41.527Z,0.00
2019-03-25T00:19:34.912Z,0.00
2019-03-25T00:20:34.882Z,0.00
2019-03-25T00:21:36.230Z,0.00
2019-03-25T00:22:34.871Z,0.00
2019-03-25T00:23:35.043Z,0.00
2019-03-25T00:24:39.055Z,0.00
2019-03-25T00:25:34.896Z,0.00
2019-03-25T00:26:34.820Z,0.00
2019-03-25T00:27:34.829Z,0.00
2019-03-25T00:28:34.838Z,0.00
2019-03-25T00:29:34.889Z,0.00
2019-03-25T00:30:34.829Z,0.00
2019-03-25T00:31:34.778Z,0.00
2019-03-25T00:32:34.777Z,0.00
2019-03-25T00:33:34.746Z,0.00
2019-03-25T00:34:34.860Z,0.00
2019-03-25T00:35:34.876Z,0.00
2019-03-25T00:36:35.479Z,0.00
2019-03-25T00:37:34.705Z,0.00
2019-03-25T00:38:34.684Z,0.00
2019-03-25T00:39:34.685Z,0.00
2019-03-25T00:40:34.682Z,0.00
2019-03-25T00:41:34.797Z,0.00
2019-03-25T00:42:34.663Z,0.00
2019-03-25T00:43:34.664Z,0.00
2019-03-25T00:44:34.640Z,0.00
2019-03-25T00:45:34.804Z,0.00
2019-03-25T00:46:34.630Z,0.00
2019-03-25T00:47:34.657Z,0.00
2019-03-25T00:48:34.585Z,0.00
2019-03-25T00:49:34.595Z,0.00
2019-03-25T00:50:34.571Z,0.00
2019-03-25T00:51:34.716Z,0.00
2019-03-25T00:52:34.556Z,0.00
2019-03-25T00:53:34.526Z,0.00
2019-03-25T00:54:34.547Z,0.00
2019-03-25T00:55:34.502Z,0.00
2019-03-25T00:56:34.499Z,0.00
2019-03-25T00:57:34.635Z,0.00
2019-03-25T00:58:34.494Z,0.00
2019-03-25T00:59:34.665Z,0.00
2019-03-25T01:00:34.459Z,0.00
2019-03-25T01:01:34.491Z,0.00
2019-03-25T01:02:34.439Z,0.00
2019-03-25T01:03:35.914Z,0.00
2019-03-25T01:04:34.714Z,0.00
2019-03-25T01:05:34.393Z,0.00
2019-03-25T01:06:34.391Z,0.00
2019-03-25T01:07:34.372Z,0.00
2019-03-25T01:08:34.362Z,0.00
2019-03-25T01:09:34.363Z,0.00
2019-03-25T01:10:34.601Z,0.00
2019-03-25T01:11:34.437Z,0.00
2019-03-25T01:12:34.318Z,0.00
2019-03-25T01:13:34.307Z,0.00
2019-03-25T01:14:34.300Z,0.00
2019-03-25T01:15:34.445Z,0.00
2019-03-25T01:16:34.279Z,0.00
2019-03-25T01:17:34.273Z,0.00
2019-03-25T01:18:34.255Z,0.00
2019-03-25T01:19:34.257Z,0.00
2019-03-25T01:20:34.239Z,0.00
2019-03-25T01:21:34.407Z,0.00
2019-03-25T01:22:34.209Z,0.00
2019-03-25T01:23:34.209Z,0.00
2019-03-25T01:24:34.715Z,0.00
2019-03-25T01:25:34.179Z,0.00
2019-03-25T01:26:34.163Z,0.00
2019-03-25T01:27:34.254Z,0.00
2019-03-25T01:28:34.304Z,0.00
2019-03-25T01:29:34.137Z,0.00
2019-03-25T01:30:34.117Z,0.00
2019-03-25T01:31:34.128Z,0.00
2019-03-25T01:32:34.107Z,0.00
2019-03-25T01:33:34.225Z,0.00
2019-03-25T01:34:34.106Z,0.00
2019-03-25T01:35:34.059Z,0.00
2019-03-25T01:36:34.140Z,0.00
2019-03-25T01:37:34.085Z,0.00
2019-03-25T01:38:34.029Z,0.00
2019-03-25T01:39:34.379Z,0.00
2019-03-25T01:40:34.029Z,0.00
2019-03-25T01:41:33.999Z,0.00
2019-03-25T01:42:33.988Z,0.00
2019-03-25T01:43:34.120Z,0.00
2019-03-25T01:44:33.967Z,0.00
2019-03-25T01:45:33.957Z,0.00
2019-03-25T01:46:33.955Z,0.00
2019-03-25T01:47:33.954Z,0.00
2019-03-25T01:48:33.925Z,0.00
2019-03-25T01:49:34.064Z,0.00
2019-03-25T01:50:33.935Z,0.00
2019-03-25T01:51:33.916Z,0.00
2019-03-25T01:52:33.882Z,0.00
2019-03-25T01:53:33.978Z,0.00
2019-03-25T01:54:33.856Z,0.00
2019-03-25T01:55:34.229Z,0.00
2019-03-25T01:56:33.966Z,0.00
2019-03-25T01:57:33.819Z,0.00
2019-03-25T01:58:33.805Z,0.00
2019-03-25T01:59:33.803Z,0.00
2019-03-25T02:00:33.791Z,0.00
2019-03-25T02:01:33.786Z,0.00
2019-03-25T02:02:33.922Z,0.00
2019-03-25T02:03:33.773Z,0.00
2019-03-25T02:04:33.750Z,0.00
2019-03-25T02:05:33.745Z,0.00
2019-03-25T02:06:33.735Z,0.00
2019-03-25T02:07:33.893Z,0.00
2019-03-25T02:08:33.784Z,0.00
2019-03-25T02:09:33.687Z,0.00
2019-03-25T02:10:33.763Z,0.00
2019-03-25T02:11:33.675Z,0.00
2019-03-25T02:12:33.731Z,0.00
2019-03-25T02:13:33.819Z,0.00
2019-03-25T02:14:33.680Z,0.00
2019-03-25T02:15:33.645Z,0.00
2019-03-25T02:16:35.675Z,0.00
2019-03-25T02:17:33.910Z,0.00
2019-03-25T02:18:33.747Z,0.00
2019-03-25T02:19:33.586Z,0.00
2019-03-25T02:20:33.582Z,0.00
2019-03-25T02:21:33.562Z,0.00
2019-03-25T02:22:33.630Z,0.00
2019-03-25T02:23:33.626Z,0.00
2019-03-25T02:24:33.727Z,0.00
2019-03-25T02:25:33.643Z,0.00
2019-03-25T02:26:33.519Z,0.00
2019-03-25T02:27:33.700Z,0.00
2019-03-25T02:28:33.486Z,0.00
2019-03-25T02:29:33.885Z,0.00
2019-03-25T02:30:33.480Z,0.00
2019-03-25T02:31:33.447Z,0.00
2019-03-25T02:32:33.464Z,0.00
2019-03-25T02:33:33.445Z,0.00
2019-03-25T02:34:33.450Z,0.00
2019-03-25T02:35:35.101Z,0.00
2019-03-25T02:36:33.872Z,0.00
2019-03-25T02:37:33.452Z,0.00
2019-03-25T02:38:33.438Z,0.00
2019-03-25T02:39:33.446Z,0.00
2019-03-25T02:40:33.354Z,0.00
2019-03-25T02:41:33.646Z,0.00
2019-03-25T02:42:33.631Z,0.00
2019-03-25T02:43:33.333Z,0.00
2019-03-25T02:44:33.321Z,0.00
2019-03-25T02:45:33.670Z,0.00
2019-03-25T02:46:33.289Z,0.00
2019-03-25T02:47:33.282Z,0.00
2019-03-25T02:48:33.735Z,0.00
2019-03-25T02:49:39.978Z,0.00
2019-03-25T02:50:33.248Z,0.00
2019-03-25T02:51:33.227Z,0.00
2019-03-25T02:52:33.224Z,0.00
2019-03-25T02:53:33.262Z,0.00
2019-03-25T02:54:33.434Z,0.00
2019-03-25T02:55:41.381Z,0.00
2019-03-25T02:56:34.180Z,0.00
2019-03-25T02:57:33.169Z,0.00
2019-03-25T02:58:33.157Z,0.00
2019-03-25T02:59:33.355Z,0.00
2019-03-25T03:00:33.142Z,0.00
2019-03-25T03:01:33.128Z,0.00
2019-03-25T03:02:33.136Z,0.00
2019-03-25T03:03:33.103Z,0.00
2019-03-25T03:04:33.105Z,0.00
2019-03-25T03:05:33.299Z,0.00
2019-03-25T03:06:33.080Z,0.00
2019-03-25T03:07:33.059Z,0.00
2019-03-25T03:08:33.043Z,0.00
2019-03-25T03:09:33.033Z,0.00
2019-03-25T03:10:33.032Z,0.00
2019-03-25T03:11:33.139Z,0.00
2019-03-25T03:12:33.036Z,0.00
2019-03-25T03:13:32.999Z,0.00
2019-03-25T03:14:33.038Z,0.00
2019-03-25T03:15:32.976Z,0.00
2019-03-25T03:16:33.306Z,0.00
2019-03-25T03:17:33.198Z,0.00
2019-03-25T03:18:32.981Z,0.00
2019-03-25T03:19:32.929Z,0.00
2019-03-25T03:20:32.921Z,0.00
2019-03-25T03:21:32.951Z,0.00
2019-03-25T03:22:33.163Z,0.00
2019-03-25T03:23:32.889Z,0.00
2019-03-25T03:24:32.876Z,0.00
2019-03-25T03:25:32.882Z,0.00
2019-03-25T03:26:32.851Z,0.00
2019-03-25T03:27:32.986Z,0.00
2019-03-25T03:28:32.988Z,0.00
2019-03-25T03:29:32.823Z,0.00
2019-03-25T03:30:32.930Z,0.00
2019-03-25T03:31:33.072Z,0.00
2019-03-25T03:32:33.039Z,0.00
2019-03-25T03:33:32.776Z,0.00
2019-03-25T03:34:32.901Z,0.00
2019-03-25T03:35:32.778Z,0.00
2019-03-25T03:36:32.761Z,0.00
2019-03-25T03:37:32.742Z,0.00
2019-03-25T03:38:32.725Z,0.00
2019-03-25T03:39:32.817Z,0.00
2019-03-25T03:40:32.715Z,0.00
2019-03-25T03:41:32.685Z,0.00
2019-03-25T03:42:32.678Z,0.00
2019-03-25T03:43:32.834Z,0.00
2019-03-25T03:44:32.663Z,0.00
2019-03-25T03:45:32.788Z,0.00
2019-03-25T03:46:32.646Z,0.00
2019-03-25T03:47:32.619Z,0.00
2019-03-25T03:48:32.702Z,0.00
2019-03-25T03:49:32.605Z,0.00
2019-03-25T03:50:32.795Z,0.00
2019-03-25T03:51:32.727Z,0.00
2019-03-25T03:52:32.566Z,0.00
2019-03-25T03:53:32.563Z,0.00
2019-03-25T03:54:32.552Z,0.00
2019-03-25T03:55:32.552Z,0.00
2019-03-25T03:56:32.524Z,0.00
2019-03-25T03:57:32.642Z,0.00
2019-03-25T03:58:32.521Z,0.00
2019-03-25T03:59:32.504Z,0.00
2019-03-25T04:00:33.844Z,0.00
2019-03-25T04:01:32.862Z,0.00
2019-03-25T04:02:32.464Z,0.00
2019-03-25T04:03:32.462Z,0.00
2019-03-25T04:04:32.434Z,0.00
2019-03-25T04:05:32.593Z,0.00
2019-03-25T04:06:33.177Z,0.00
2019-03-25T04:07:35.397Z,0.00
2019-03-25T04:08:32.399Z,0.00
2019-03-25T04:09:32.388Z,0.00
2019-03-25T04:10:32.382Z,0.00
2019-03-25T04:11:32.383Z,0.00
2019-03-25T04:12:32.488Z,0.00
2019-03-25T04:13:32.351Z,0.00
2019-03-25T04:14:32.349Z,0.00
2019-03-25T04:15:32.321Z,0.00
2019-03-25T04:16:32.319Z,0.00
2019-03-25T04:17:32.294Z,0.00
2019-03-25T04:18:32.395Z,0.00
2019-03-25T04:19:32.285Z,0.00
2019-03-25T04:20:32.272Z,0.00
2019-03-25T04:21:32.254Z,0.00
2019-03-25T04:22:32.558Z,0.00
2019-03-25T04:23:32.575Z,0.00
2019-03-25T04:24:32.255Z,0.00
2019-03-25T04:25:32.217Z,0.00
2019-03-25T04:26:32.267Z,4.00
2019-03-25T04:27:32.197Z,4.00
2019-03-25T04:28:33.676Z,4.00
2019-03-25T04:29:32.175Z,4.00
2019-03-25T04:30:32.157Z,4.00
2019-03-25T04:31:32.240Z,4.00
2019-03-25T04:32:32.147Z,4.00
2019-03-25T04:33:32.145Z,4.00
2019-03-25T04:34:32.240Z,4.00
2019-03-25T04:35:32.112Z,8.00
2019-03-25T04:36:32.093Z,8.00
2019-03-25T04:37:32.101Z,8.00
2019-03-25T04:38:32.628Z,12.00
2019-03-25T04:39:32.120Z,12.00
2019-03-25T04:40:32.208Z,20.00
2019-03-25T04:41:32.052Z,24.00
2019-03-25T04:42:32.041Z,28.00
2019-03-25T04:43:32.024Z,32.00
2019-03-25T04:44:32.042Z,36.00
2019-03-25T04:45:32.428Z,44.00
2019-03-25T04:46:31.979Z,52.00
2019-03-25T04:47:31.976Z,56.00
2019-03-25T04:48:31.971Z,64.00
2019-03-25T04:49:31.965Z,68.00
2019-03-25T04:50:32.112Z,76.00
2019-03-25T04:51:31.937Z,84.00
2019-03-25T04:52:31.914Z,96.00
2019-03-25T04:53:31.915Z,112.00
2019-03-25T04:54:32.272Z,128.00
2019-03-25T04:55:31.908Z,148.00
2019-03-25T04:56:39.546Z,168.00
2019-03-25T04:57:34.237Z,188.00
2019-03-25T04:58:31.853Z,216.00
2019-03-25T04:59:31.844Z,248.00
2019-03-25T05:00:31.954Z,280.00
2019-03-25T05:01:31.829Z,312.00
2019-03-25T05:02:31.896Z,340.00
2019-03-25T05:03:31.792Z,372.00
2019-03-25T05:04:31.871Z,368.00
2019-03-25T05:05:31.781Z,316.00
2019-03-25T05:06:31.869Z,308.00
2019-03-25T05:07:31.775Z,328.00
2019-03-25T05:08:31.787Z,324.00
2019-03-25T05:09:31.958Z,324.00
2019-03-25T05:10:31.755Z,336.00
2019-03-25T05:11:31.806Z,316.00
2019-03-25T05:12:31.748Z,300.00
2019-03-25T05:13:31.797Z,296.00
2019-03-25T05:14:32.437Z,256.00
2019-03-25T05:15:32.135Z,208.00
2019-03-25T05:16:31.878Z,188.00
2019-03-25T05:17:32.015Z,192.00
2019-03-25T05:18:33.143Z,208.00
2019-03-25T05:19:31.619Z,240.00
2019-03-25T05:20:31.645Z,288.00
2019-03-25T05:21:31.602Z,328.00
2019-03-25T05:22:31.763Z,376.00
2019-03-25T05:23:31.928Z,428.00
2019-03-25T05:24:31.579Z,472.00
2019-03-25T05:25:31.590Z,516.00
2019-03-25T05:26:31.771Z,524.00
2019-03-25T05:27:31.541Z,516.00
2019-03-25T05:28:31.580Z,556.00
2019-03-25T05:29:31.526Z,652.00
2019-03-25T05:30:31.525Z,744.00
2019-03-25T05:31:31.780Z,804.00
2019-03-25T05:32:31.484Z,828.00
2019-03-25T05:33:31.486Z,972.00
2019-03-25T05:34:31.463Z,1104.00
2019-03-25T05:35:31.462Z,1184.00
2019-03-25T05:36:31.467Z,1300.00
2019-03-25T05:37:31.784Z,1416.00
2019-03-25T05:38:31.458Z,1548.00
2019-03-25T05:39:32.263Z,1572.00
2019-03-25T05:40:31.647Z,1484.00
2019-03-25T05:41:31.450Z,1636.00
2019-03-25T05:42:31.440Z,1764.00
2019-03-25T05:43:31.463Z,1572.00
2019-03-25T05:44:31.493Z,1684.00
2019-03-25T05:45:31.413Z,1972.00
2019-03-25T05:46:31.335Z,2180.00
2019-03-25T05:47:31.342Z,2468.00
2019-03-25T05:48:31.323Z,2536.00
2019-03-25T05:49:31.300Z,2224.00
2019-03-25T05:50:31.522Z,1960.00
2019-03-25T05:51:31.292Z,1864.00
2019-03-25T05:52:31.288Z,1672.00
2019-03-25T05:53:31.256Z,1420.00
2019-03-25T05:54:31.246Z,1152.00
2019-03-25T05:55:31.447Z,872.00
2019-03-25T05:56:31.233Z,664.00
2019-03-25T05:57:31.213Z,548.00
2019-03-25T05:58:31.201Z,444.00
2019-03-25T05:59:31.193Z,328.00
2019-03-25T06:00:31.615Z,280.00
2019-03-25T06:01:31.295Z,268.00
2019-03-25T06:02:31.156Z,320.00
2019-03-25T06:03:31.135Z,424.00
2019-03-25T06:04:31.165Z,456.00
2019-03-25T06:05:31.115Z,548.00
2019-03-25T06:06:31.728Z,688.00
2019-03-25T06:07:31.110Z,944.00
2019-03-25T06:08:31.089Z,1284.00
2019-03-25T06:09:31.090Z,1248.00
2019-03-25T06:10:31.173Z,1184.00
2019-03-25T06:11:31.053Z,1456.00
2019-03-25T06:12:31.136Z,1796.00
2019-03-25T06:13:31.038Z,1916.00
2019-03-25T06:14:31.028Z,1960.00
2019-03-25T06:15:31.032Z,1860.00
2019-03-25T06:16:31.634Z,1840.00
2019-03-25T06:17:33.910Z,1864.00
2019-03-25T06:18:31.032Z,1840.00
2019-03-25T06:19:31.352Z,1684.00
2019-03-25T06:20:30.974Z,1624.00
2019-03-25T06:21:31.400Z,1488.00
2019-03-25T06:22:30.947Z,1008.00
2019-03-25T06:23:31.277Z,868.00
2019-03-25T06:24:30.915Z,792.00
2019-03-25T06:25:31.088Z,808.00
2019-03-25T06:26:30.893Z,716.00
2019-03-25T06:27:30.881Z,688.00
2019-03-25T06:28:30.995Z,708.00
2019-03-25T06:29:33.468Z,748.00
2019-03-25T06:30:30.855Z,700.00
2019-03-25T06:31:30.872Z,752.00
2019-03-25T06:32:31.814Z,964.00
2019-03-25T06:33:31.415Z,1052.00
2019-03-25T06:34:31.137Z,976.00
2019-03-25T06:35:30.796Z,1056.00
2019-03-25T06:36:30.793Z,1004.00
2019-03-25T06:37:30.807Z,788.00
2019-03-25T06:38:30.761Z,836.00
2019-03-25T06:39:31.290Z,800.00
2019-03-25T06:40:31.049Z,760.00
2019-03-25T06:41:30.793Z,888.00
2019-03-25T06:42:31.298Z,892.00
2019-03-25T06:43:30.926Z,904.00
2019-03-25T06:44:30.924Z,776.00
2019-03-25T06:45:30.767Z,924.00
2019-03-25T06:46:30.675Z,844.00
2019-03-25T06:47:30.813Z,912.00
2019-03-25T06:48:30.658Z,932.00
2019-03-25T06:49:30.637Z,924.00
2019-03-25T06:50:32.890Z,844.00
2019-03-25T06:51:30.727Z,988.00
2019-03-25T06:52:30.755Z,1112.00
2019-03-25T06:53:30.619Z,1016.00
2019-03-25T06:54:30.587Z,920.00
2019-03-25T06:55:30.613Z,1108.00
2019-03-25T06:56:30.576Z,1132.00
2019-03-25T06:57:30.694Z,1116.00
2019-03-25T06:58:30.561Z,1076.00
2019-03-25T06:59:30.543Z,984.00
2019-03-25T07:00:30.641Z,1288.00
2019-03-25T07:01:30.953Z,1576.00
2019-03-25T07:02:30.501Z,1336.00
2019-03-25T07:03:30.625Z,1484.00
2019-03-25T07:04:30.486Z,1444.00
2019-03-25T07:05:30.831Z,1704.00
2019-03-25T07:06:30.513Z,1716.00
2019-03-25T07:07:30.452Z,1584.00
2019-03-25T07:08:30.454Z,1532.00
2019-03-25T07:09:30.437Z,1388.00
2019-03-25T07:10:31.123Z,1308.00
2019-03-25T07:11:32.421Z,1360.00
2019-03-25T07:12:30.478Z,1524.00
2019-03-25T07:13:30.743Z,1652.00
2019-03-25T07:14:31.428Z,1868.00
2019-03-25T07:15:31.308Z,1472.00
2019-03-25T07:16:31.343Z,1628.00
2019-03-25T07:17:30.916Z,1432.00
2019-03-25T07:18:30.458Z,1776.00
2019-03-25T07:19:30.432Z,1932.00
2019-03-25T07:20:30.474Z,2096.00
2019-03-25T07:21:30.955Z,1900.00
2019-03-25T07:22:30.453Z,2148.00
2019-03-25T07:23:32.468Z,2488.00
2019-03-25T07:24:30.264Z,2252.00
2019-03-25T07:25:30.245Z,2444.00
2019-03-25T07:26:31.398Z,2452.00
2019-03-25T07:27:36.663Z,2204.00
2019-03-25T07:28:31.446Z,2004.00
2019-03-25T07:29:30.207Z,2104.00
2019-03-25T07:30:30.197Z,2512.00
2019-03-25T07:31:30.208Z,2252.00
2019-03-25T07:32:30.174Z,2048.00
2019-03-25T07:33:30.184Z,2560.00
2019-03-25T07:34:30.379Z,3012.00
2019-03-25T07:35:30.179Z,2680.00
2019-03-25T07:36:30.151Z,2584.00
2019-03-25T07:37:30.130Z,2136.00
2019-03-25T07:38:30.123Z,2404.00
2019-03-25T07:39:30.098Z,2572.00
2019-03-25T07:40:30.345Z,3140.00
2019-03-25T07:41:30.070Z,2772.00
2019-03-25T07:42:30.074Z,2332.00
2019-03-25T07:43:30.056Z,2316.00
2019-03-25T07:44:30.064Z,2300.00
2019-03-25T07:45:30.136Z,2176.00
2019-03-25T07:46:30.011Z,2040.00
2019-03-25T07:47:30.018Z,2456.00
2019-03-25T07:48:30.183Z,2584.00
2019-03-25T07:49:29.986Z,2872.00
2019-03-25T07:50:30.020Z,3092.00
2019-03-25T07:51:29.954Z,3132.00
2019-03-25T07:52:29.946Z,3072.00
2019-03-25T07:53:30.111Z,3184.00
2019-03-25T07:54:29.975Z,3468.00
2019-03-25T07:55:32.340Z,3744.00
2019-03-25T07:56:30.164Z,2916.00
2019-03-25T07:57:29.960Z,3024.00
2019-03-25T07:58:30.067Z,4624.00
2019-03-25T07:59:30.318Z,6604.00
2019-03-25T08:00:29.875Z,5612.00
2019-03-25T08:01:29.888Z,4840.00
2019-03-25T08:02:29.849Z,4136.00
2019-03-25T08:03:29.980Z,4856.00
2019-03-25T08:04:29.827Z,4236.00
2019-03-25T08:05:29.935Z,3900.00
2019-03-25T08:06:29.795Z,5696.00
2019-03-25T08:07:29.797Z,6996.00
2019-03-25T08:08:29.769Z,9636.00
2019-03-25T08:09:29.774Z,8040.00
2019-03-25T08:10:29.766Z,5072.00
2019-03-25T08:11:29.907Z,5496.00
2019-03-25T08:12:29.832Z,4420.00
2019-03-25T08:13:29.713Z,4240.00
2019-03-25T08:14:29.874Z,3948.00
2019-03-25T08:15:29.700Z,5104.00
2019-03-25T08:16:29.747Z,4240.00
2019-03-25T08:17:29.899Z,4968.00
2019-03-25T08:18:29.689Z,4896.00
2019-03-25T08:19:29.665Z,4684.00
2019-03-25T08:20:29.651Z,4196.00
2019-03-25T08:21:29.632Z,4748.00
2019-03-25T08:22:31.188Z,5164.00
2019-03-25T08:23:29.857Z,4140.00
2019-03-25T08:24:29.608Z,5076.00
2019-03-25T08:25:29.593Z,6068.00
2019-03-25T08:26:29.582Z,5060.00
2019-03-25T08:27:29.652Z,4492.00
2019-03-25T08:28:29.555Z,4376.00
2019-03-25T08:29:30.451Z,6636.00
2019-03-25T08:30:29.547Z,6232.00
2019-03-25T08:31:29.625Z,4992.00
2019-03-25T08:32:29.586Z,6964.00
2019-03-25T08:33:29.531Z,11668.00
2019-03-25T08:34:29.490Z,13344.00
2019-03-25T08:35:29.989Z,15732.00
2019-03-25T08:36:29.464Z,11588.00
2019-03-25T08:37:29.460Z,10228.00
2019-03-25T08:38:29.449Z,10704.00
2019-03-25T08:39:29.445Z,11004.00
2019-03-25T08:40:29.464Z,13088.00
2019-03-25T08:41:30.049Z,12932.00
2019-03-25T08:42:29.465Z,12380.00
2019-03-25T08:43:30.121Z,10964.00
2019-03-25T08:44:29.435Z,8380.00
2019-03-25T08:45:29.378Z,7196.00
2019-03-25T08:46:29.893Z,5600.00
2019-03-25T08:47:29.349Z,6396.00
2019-03-25T08:48:29.457Z,5652.00
2019-03-25T08:49:29.330Z,5852.00
2019-03-25T08:50:29.316Z,6068.00
2019-03-25T08:51:30.371Z,6568.00
2019-03-25T08:52:29.290Z,5152.00
2019-03-25T08:53:29.306Z,5048.00
2019-03-25T08:54:29.273Z,6064.00
2019-03-25T08:55:29.269Z,5928.00
2019-03-25T08:56:29.259Z,7636.00
2019-03-25T08:57:29.497Z,9436.00
2019-03-25T08:58:29.237Z,15228.00
2019-03-25T08:59:29.695Z,11572.00
2019-03-25T09:00:29.204Z,15144.00
2019-03-25T09:01:29.198Z,20768.00
2019-03-25T09:02:29.183Z,21408.00
2019-03-25T09:03:29.720Z,25056.00
2019-03-25T09:04:29.357Z,32704.00
2019-03-25T09:05:29.173Z,25504.00
2019-03-25T09:06:29.143Z,24672.00
2019-03-25T09:07:29.127Z,25824.00
2019-03-25T09:08:29.352Z,13016.00
2019-03-25T09:09:29.232Z,11028.00
2019-03-25T09:10:29.098Z,8468.00
2019-03-25T09:11:29.091Z,7616.00
2019-03-25T09:12:29.068Z,9152.00
2019-03-25T09:13:29.062Z,9556.00
2019-03-25T09:14:29.226Z,10516.00
2019-03-25T09:15:29.623Z,9368.00
2019-03-25T09:16:29.061Z,15056.00
2019-03-25T09:17:29.017Z,14816.00
2019-03-25T09:18:29.017Z,7464.00
2019-03-25T09:19:29.195Z,7484.00
2019-03-25T09:20:30.404Z,7088.00
2019-03-25T09:21:29.200Z,8084.00
2019-03-25T09:22:29.000Z,8964.00
2019-03-25T09:23:28.959Z,10720.00
2019-03-25T09:24:28.930Z,12484.00
2019-03-25T09:25:28.936Z,11832.00
2019-03-25T09:26:28.933Z,8800.00
2019-03-25T09:27:29.018Z,8500.00
2019-03-25T09:28:28.891Z,6924.00
2019-03-25T09:29:28.911Z,9444.00
2019-03-25T09:30:28.877Z,10800.00
2019-03-25T09:31:36.726Z,14264.00
2019-03-25T09:32:30.151Z,13332.00
2019-03-25T09:33:28.864Z,12492.00
2019-03-25T09:34:28.823Z,12240.00
2019-03-25T09:35:28.881Z,11332.00
2019-03-25T09:36:28.808Z,11488.00
2019-03-25T09:37:28.991Z,9388.00
2019-03-25T09:38:28.797Z,9448.00
2019-03-25T09:39:28.800Z,11692.00
2019-03-25T09:40:28.776Z,12812.00
2019-03-25T09:41:28.744Z,14728.00
2019-03-25T09:42:28.886Z,12744.00
2019-03-25T09:43:28.823Z,11356.00
2019-03-25T09:44:28.726Z,9452.00
2019-03-25T09:45:28.709Z,7644.00
2019-03-25T09:46:28.693Z,7120.00
2019-03-25T09:47:28.726Z,8416.00
2019-03-25T09:48:28.916Z,9476.00
2019-03-25T09:49:28.766Z,12432.00
2019-03-25T09:50:28.649Z,15156.00
2019-03-25T09:51:28.660Z,18368.00
2019-03-25T09:52:38.150Z,20736.00
2019-03-25T09:53:29.791Z,20288.00
2019-03-25T09:54:30.013Z,21408.00
2019-03-25T09:55:28.721Z,23104.00
2019-03-25T09:56:28.587Z,21408.00
2019-03-25T09:57:28.579Z,18208.00
2019-03-25T09:58:36.136Z,15732.00
2019-03-25T09:59:29.963Z,14564.00
2019-03-25T10:00:28.546Z,12000.00
2019-03-25T10:01:28.539Z,11740.00
2019-03-25T10:02:28.524Z,10980.00
2019-03-25T10:03:28.514Z,10820.00
2019-03-25T10:04:28.505Z,9188.00
2019-03-25T10:05:28.686Z,8688.00
2019-03-25T10:06:28.497Z,9256.00
2019-03-25T10:07:28.626Z,9980.00
2019-03-25T10:08:28.670Z,8848.00
2019-03-25T10:09:28.529Z,7204.00
2019-03-25T10:10:28.442Z,6888.00
2019-03-25T10:11:28.440Z,10260.00
2019-03-25T10:12:28.427Z,11348.00
2019-03-25T10:13:28.397Z,11292.00
2019-03-25T10:14:28.540Z,10120.00
2019-03-25T10:15:29.062Z,8828.00
2019-03-25T10:16:28.370Z,7560.00
2019-03-25T10:17:28.364Z,8424.00
2019-03-25T10:18:28.350Z,9352.00
2019-03-25T10:19:30.164Z,10236.00
2019-03-25T10:20:28.314Z,11284.00
2019-03-25T10:21:28.307Z,16168.00
2019-03-25T10:22:28.459Z,22112.00
2019-03-25T10:23:28.287Z,25376.00
2019-03-25T10:24:28.438Z,22272.00
2019-03-25T10:25:28.274Z,20192.00
2019-03-25T10:26:28.327Z,19584.00
2019-03-25T10:27:28.385Z,19008.00
2019-03-25T10:28:28.253Z,19488.00
2019-03-25T10:29:28.232Z,20704.00
2019-03-25T10:30:28.207Z,22976.00
2019-03-25T10:31:28.199Z,19328.00
2019-03-25T10:32:28.182Z,18944.00
2019-03-25T10:33:28.328Z,14788.00
2019-03-25T10:34:28.172Z,12448.00
2019-03-25T10:35:28.159Z,9976.00
2019-03-25T10:36:28.146Z,10640.00
2019-03-25T10:37:28.293Z,10824.00
2019-03-25T10:38:28.288Z,8240.00
2019-03-25T10:39:28.110Z,6800.00
2019-03-25T10:40:28.102Z,9344.00
2019-03-25T10:41:28.097Z,14456.00
2019-03-25T10:42:28.070Z,20608.00
2019-03-25T10:43:28.079Z,24608.00
2019-03-25T10:44:28.211Z,29248.00
2019-03-25T10:45:28.051Z,40992.00
2019-03-25T10:46:28.046Z,41472.00
2019-03-25T10:47:28.033Z,30976.00
2019-03-25T10:48:28.011Z,25792.00
2019-03-25T10:49:28.000Z,24288.00
2019-03-25T10:50:43.054Z,22720.00
2019-03-25T10:51:28.038Z,22624.00
2019-03-25T10:52:28.086Z,22848.00
2019-03-25T10:53:29.008Z,24576.00
2019-03-25T10:54:28.056Z,25344.00
2019-03-25T10:55:28.241Z,27136.00
2019-03-25T10:56:27.934Z,31488.00
2019-03-25T10:57:27.912Z,27488.00
2019-03-25T10:58:28.253Z,34848.00
2019-03-25T10:59:28.043Z,34624.00
2019-03-25T11:00:27.883Z,32960.00
2019-03-25T11:01:27.870Z,29120.00
2019-03-25T11:02:27.878Z,58816.00
2019-03-25T11:03:27.858Z,38496.00
2019-03-25T11:04:28.017Z,34176.00
2019-03-25T11:05:27.819Z,72480.00
2019-03-25T11:06:27.822Z,59584.00
2019-03-25T11:07:29.467Z,62240.00
2019-03-25T11:08:27.803Z,71616.00
2019-03-25T11:09:27.780Z,93568.00
2019-03-25T11:10:27.895Z,87808.00
2019-03-25T11:11:27.830Z,36608.00
2019-03-25T11:12:27.757Z,86560.00
2019-03-25T11:13:27.792Z,33728.00
2019-03-25T11:14:27.903Z,46816.00
2019-03-25T11:15:27.859Z,98144.00
2019-03-25T11:16:27.912Z,36352.00
2019-03-25T11:17:27.902Z,114176.00
2019-03-25T11:18:27.688Z,100256.00
2019-03-25T11:19:27.673Z,108288.00
2019-03-25T11:20:27.668Z,107456.00
2019-03-25T11:21:28.019Z,59008.00
2019-03-25T11:22:27.649Z,105024.00
2019-03-25T11:23:27.878Z,38368.00
2019-03-25T11:24:27.619Z,85728.00
2019-03-25T11:25:27.697Z,105792.00
2019-03-25T11:26:28.888Z,87200.00
2019-03-25T11:27:27.859Z,31776.00
2019-03-25T11:28:27.567Z,31808.00
2019-03-25T11:29:27.559Z,36352.00
2019-03-25T11:30:27.583Z,30272.00
2019-03-25T11:31:27.538Z,31552.00
2019-03-25T11:32:27.671Z,42080.00
2019-03-25T11:33:27.855Z,45504.00
2019-03-25T11:34:27.532Z,92032.00
2019-03-25T11:35:27.506Z,55584.00
2019-03-25T11:36:27.498Z,32672.00
2019-03-25T11:37:27.509Z,25824.00
2019-03-25T11:38:27.532Z,19072.00
2019-03-25T11:39:27.455Z,13836.00
2019-03-25T11:40:27.455Z,10496.00
2019-03-25T11:41:27.437Z,9180.00
2019-03-25T11:42:27.424Z,9436.00
2019-03-25T11:43:27.428Z,7264.00
2019-03-25T11:44:29.096Z,6784.00
2019-03-25T11:45:27.441Z,7368.00
2019-03-25T11:46:27.793Z,8172.00
2019-03-25T11:47:27.629Z,8344.00
2019-03-25T11:48:27.356Z,9592.00
2019-03-25T11:49:27.470Z,10668.00
2019-03-25T11:50:27.706Z,13060.00
2019-03-25T11:51:27.364Z,50624.00
2019-03-25T11:52:27.306Z,83456.00
2019-03-25T11:53:27.297Z,85984.00
2019-03-25T11:54:27.290Z,97408.00
2019-03-25T11:55:27.467Z,99744.00
2019-03-25T11:56:27.465Z,97216.00
2019-03-25T11:57:27.248Z,96832.00
2019-03-25T11:58:27.246Z,98624.00
2019-03-25T11:59:27.399Z,96960.00
2019-03-25T12:00:27.395Z,98496.00
2019-03-25T12:01:27.206Z,98272.00
2019-03-25T12:02:27.206Z,97920.00
2019-03-25T12:03:27.213Z,96256.00
2019-03-25T12:04:27.198Z,94016.00
2019-03-25T12:05:27.169Z,93792.00
2019-03-25T12:06:27.482Z,93024.00
2019-03-25T12:07:27.139Z,93920.00
2019-03-25T12:08:27.152Z,92544.00
2019-03-25T12:09:27.138Z,94304.00
2019-03-25T12:10:27.111Z,95680.00
2019-03-25T12:11:27.356Z,98592.00
2019-03-25T12:12:27.261Z,100096.00
2019-03-25T12:13:27.097Z,24512.00
2019-03-25T12:14:27.077Z,104096.00
2019-03-25T12:15:27.062Z,101760.00
2019-03-25T12:16:27.313Z,99584.00
2019-03-25T12:17:27.062Z,102752.00
2019-03-25T12:18:27.038Z,58016.00
2019-03-25T12:19:27.830Z,15816.00
2019-03-25T12:20:27.024Z,13532.00
2019-03-25T12:21:27.032Z,12104.00
2019-03-25T12:22:27.284Z,93280.00
2019-03-25T12:23:26.965Z,91008.00
2019-03-25T12:24:26.988Z,88928.00
2019-03-25T12:25:27.365Z,80352.00
2019-03-25T12:26:26.970Z,101920.00
2019-03-25T12:27:27.026Z,36672.00
2019-03-25T12:28:26.934Z,63200.00